Weather at Çanakkale Airport

Public forecast

Using degrees Celsius for public forecast. Weather courtesy of forecast.io.

Current aviation weather report (METAR) for Çanakkale Airport

Retrieved 2022/01/19 18:50 UTC (55 minutes ago):

LTBH 191850Z 07005KT CAVOK M02/M06 Q1031

Closest aviation forecast (TAF) to Çanakkale Airport

Forecast is more than 12 hours old.

Closest forecast is Alexandroupoli Democritus Airport, 48.2 nm (89.2 km) NNW. Retrieved 2012/09/21 03:06 UTC (9 years ago):

TAF TAF LGAL 210200Z 2103/2115 03012G22KT 9999 FEW020 SCT070 PROB30 TEMPO 2103/2106 6000 RA SCT015 BKN030 PROB30